sensor_id;sensor_type;location;lat;lon;timestamp;temperature;humidity
8707;DHT22;4390;49.302;9.306;2022-12-20T00:01:11;2.00;96.00
8707;DHT22;4390;49.302;9.306;2022-12-20T00:03:39;2.00;96.20
8707;DHT22;4390;49.302;9.306;2022-12-20T00:06:06;1.90;96.30
8707;DHT22;4390;49.302;9.306;2022-12-20T00:08:33;1.80;96.70
8707;DHT22;4390;49.302;9.306;2022-12-20T00:11:03;1.80;96.80
8707;DHT22;4390;49.302;9.306;2022-12-20T00:13:31;1.80;96.80
8707;DHT22;4390;49.302;9.306;2022-12-20T00:16:13;1.70;96.90
8707;DHT22;4390;49.302;9.306;2022-12-20T00:18:41;1.80;97.10
8707;DHT22;4390;49.302;9.306;2022-12-20T00:21:10;1.80;96.80
8707;DHT22;4390;49.302;9.306;2022-12-20T00:23:38;1.70;97.00
8707;DHT22;4390;49.302;9.306;2022-12-20T00:26:08;1.90;97.10
8707;DHT22;4390;49.302;9.306;2022-12-20T00:28:36;2.00;96.60
8707;DHT22;4390;49.302;9.306;2022-12-20T00:31:04;1.90;96.50
8707;DHT22;4390;49.302;9.306;2022-12-20T00:33:33;2.10;96.50
8707;DHT22;4390;49.302;9.306;2022-12-20T00:36:00;1.80;96.70
8707;DHT22;4390;49.302;9.306;2022-12-20T00:38:27;1.90;96.60
8707;DHT22;4390;49.302;9.306;2022-12-20T00:41:15;1.80;96.90
8707;DHT22;4390;49.302;9.306;2022-12-20T00:43:43;1.80;97.00
8707;DHT22;4390;49.302;9.306;2022-12-20T00:46:12;1.60;97.20
8707;DHT22;4390;49.302;9.306;2022-12-20T00:48:39;1.50;97.50
8707;DHT22;4390;49.302;9.306;2022-12-20T00:51:13;1.70;97.70
8707;DHT22;4390;49.302;9.306;2022-12-20T00:53:40;1.80;97.30
8707;DHT22;4390;49.302;9.306;2022-12-20T00:56:08;1.90;97.30
8707;DHT22;4390;49.302;9.306;2022-12-20T00:58:38;2.00;96.90
8707;DHT22;4390;49.302;9.306;2022-12-20T01:01:06;1.90;97.20
8707;DHT22;4390;49.302;9.306;2022-12-20T01:03:39;2.00;97.00
8707;DHT22;4390;49.302;9.306;2022-12-20T01:06:07;2.00;96.90
8707;DHT22;4390;49.302;9.306;2022-12-20T01:08:33;2.10;97.30
8707;DHT22;4390;49.302;9.306;2022-12-20T01:11:20;2.30;96.60
8707;DHT22;4390;49.302;9.306;2022-12-20T01:13:49;2.30;96.60
8707;DHT22;4390;49.302;9.306;2022-12-20T01:16:18;2.20;96.80
8707;DHT22;4390;49.302;9.306;2022-12-20T01:18:45;2.10;97.10
8707;DHT22;4390;49.302;9.306;2022-12-20T01:21:14;1.90;97.70
8707;DHT22;4390;49.302;9.306;2022-12-20T01:23:41;1.90;98.10
8707;DHT22;4390;49.302;9.306;2022-12-20T01:26:12;2.00;97.80
8707;DHT22;4390;49.302;9.306;2022-12-20T01:28:41;1.90;97.80
8707;DHT22;4390;49.302;9.306;2022-12-20T01:31:11;1.90;98.10
8707;DHT22;4390;49.302;9.306;2022-12-20T01:33:39;1.80;98.30
8707;DHT22;4390;49.302;9.306;2022-12-20T01:36:08;1.90;98.30
8707;DHT22;4390;49.302;9.306;2022-12-20T01:38:36;1.90;98.00
8707;DHT22;4390;49.302;9.306;2022-12-20T01:41:02;1.90;98.30
8707;DHT22;4390;49.302;9.306;2022-12-20T01:43:49;2.00;98.10
8707;DHT22;4390;49.302;9.306;2022-12-20T01:46:18;2.10;98.10
8707;DHT22;4390;49.302;9.306;2022-12-20T01:48:54;2.00;98.00
8707;DHT22;4390;49.302;9.306;2022-12-20T01:51:23;1.90;98.20
8707;DHT22;4390;49.302;9.306;2022-12-20T01:53:55;1.90;98.30
8707;DHT22;4390;49.302;9.306;2022-12-20T01:56:23;2.00;98.30
8707;DHT22;4390;49.302;9.306;2022-12-20T01:58:52;2.00;98.30
8707;DHT22;4390;49.302;9.306;2022-12-20T02:01:22;2.10;98.30
8707;DHT22;4390;49.302;9.306;2022-12-20T02:03:51;2.00;98.20
8707;DHT22;4390;49.302;9.306;2022-12-20T02:06:21;2.00;98.30
8707;DHT22;4390;49.302;9.306;2022-12-20T02:08:49;1.90;98.30
8707;DHT22;4390;49.302;9.306;2022-12-20T02:14:22;1.90;98.30
8707;DHT22;4390;49.302;9.306;2022-12-20T02:17:26;1.80;98.30
8707;DHT22;4390;49.302;9.306;2022-12-20T02:22:47;2.00;98.30
8707;DHT22;4390;49.302;9.306;2022-12-20T02:30:33;2.10;98.30
8707;DHT22;4390;49.302;9.306;2022-12-20T02:33:11;1.90;98.30
8707;DHT22;4390;49.302;9.306;2022-12-20T02:35:40;2.00;98.30
8707;DHT22;4390;49.302;9.306;2022-12-20T02:38:31;2.20;98.30
8707;DHT22;4390;49.302;9.306;2022-12-20T02:41:50;2.20;98.30
8707;DHT22;4390;49.302;9.306;2022-12-20T02:44:01;2.30;98.30
8707;DHT22;4390;49.302;9.306;2022-12-20T02:46:47;2.20;98.30
8707;DHT22;4390;49.302;9.306;2022-12-20T02:49:20;2.10;98.30
8707;DHT22;4390;49.302;9.306;2022-12-20T02:51:50;2.10;98.30
8707;DHT22;4390;49.302;9.306;2022-12-20T02:54:18;2.00;98.30
8707;DHT22;4390;49.302;9.306;2022-12-20T02:56:55;2.20;98.30
8707;DHT22;4390;49.302;9.306;2022-12-20T02:59:48;2.20;98.30
8707;DHT22;4390;49.302;9.306;2022-12-20T03:02:16;2.40;98.30
8707;DHT22;4390;49.302;9.306;2022-12-20T03:04:45;2.30;98.30
8707;DHT22;4390;49.302;9.306;2022-12-20T03:07:13;2.20;98.30
8707;DHT22;4390;49.302;9.306;2022-12-20T03:09:43;2.10;98.30
8707;DHT22;4390;49.302;9.306;2022-12-20T03:12:13;2.20;98.30
8707;DHT22;4390;49.302;9.306;2022-12-20T03:14:41;2.20;98.30
8707;DHT22;4390;49.302;9.306;2022-12-20T03:17:10;2.20;98.30
8707;DHT22;4390;49.302;9.306;2022-12-20T03:19:37;2.00;98.30
8707;DHT22;4390;49.302;9.306;2022-12-20T03:22:04;2.00;98.30
8707;DHT22;4390;49.302;9.306;2022-12-20T03:24:31;2.20;98.30
8707;DHT22;4390;49.302;9.306;2022-12-20T03:26:59;2.10;98.30
8707;DHT22;4390;49.302;9.306;2022-12-20T03:29:26;2.10;98.30
8707;DHT22;4390;49.302;9.306;2022-12-20T03:31:53;2.10;98.30
8707;DHT22;4390;49.302;9.306;2022-12-20T03:34:20;2.00;98.30
8707;DHT22;4390;49.302;9.306;2022-12-20T03:36:46;2.00;98.30
8707;DHT22;4390;49.302;9.306;2022-12-20T03:39:13;2.00;98.30
8707;DHT22;4390;49.302;9.306;2022-12-20T03:41:40;2.00;98.30
8707;DHT22;4390;49.302;9.306;2022-12-20T03:44:08;1.90;98.30
8707;DHT22;4390;49.302;9.306;2022-12-20T03:46:35;1.80;98.30
8707;DHT22;4390;49.302;9.306;2022-12-20T03:49:03;1.70;98.30
8707;DHT22;4390;49.302;9.306;2022-12-20T03:51:32;1.90;98.30
8707;DHT22;4390;49.302;9.306;2022-12-20T03:53:59;1.90;98.30
8707;DHT22;4390;49.302;9.306;2022-12-20T03:56:43;1.90;98.30
8707;DHT22;4390;49.302;9.306;2022-12-20T03:59:10;2.00;98.30
8707;DHT22;4390;49.302;9.306;2022-12-20T04:01:37;2.10;98.30
8707;DHT22;4390;49.302;9.306;2022-12-20T04:04:04;2.10;98.30
8707;DHT22;4390;49.302;9.306;2022-12-20T04:06:31;2.00;98.30
8707;DHT22;4390;49.302;9.306;2022-12-20T04:08:58;1.90;98.30
8707;DHT22;4390;49.302;9.306;2022-12-20T04:11:30;2.00;98.30
8707;DHT22;4390;49.302;9.306;2022-12-20T04:14:15;2.00;98.30
8707;DHT22;4390;49.302;9.306;2022-12-20T04:16:42;1.90;98.30
8707;DHT22;4390;49.302;9.306;2022-12-20T04:19:10;1.90;98.30
8707;DHT22;4390;49.302;9.306;2022-12-20T04:21:43;1.90;98.30
8707;DHT22;4390;49.302;9.306;2022-12-20T04:24:11;2.00;98.30
8707;DHT22;4390;49.302;9.306;2022-12-20T04:26:43;1.90;98.30
8707;DHT22;4390;49.302;9.306;2022-12-20T04:29:11;1.90;98.30
8707;DHT22;4390;49.302;9.306;2022-12-20T04:31:39;2.10;98.30
8707;DHT22;4390;49.302;9.306;2022-12-20T04:34:06;2.10;98.30
8707;DHT22;4390;49.302;9.306;2022-12-20T04:36:33;2.00;98.30
8707;DHT22;4390;49.302;9.306;2022-12-20T04:39:04;2.00;98.30
8707;DHT22;4390;49.302;9.306;2022-12-20T04:41:43;2.00;98.30
8707;DHT22;4390;49.302;9.306;2022-12-20T04:44:12;2.30;98.30
8707;DHT22;4390;49.302;9.306;2022-12-20T04:46:38;2.20;98.30
8707;DHT22;4390;49.302;9.306;2022-12-20T04:49:10;2.00;98.30
8707;DHT22;4390;49.302;9.306;2022-12-20T04:51:39;2.00;98.30
8707;DHT22;4390;49.302;9.306;2022-12-20T04:54:05;1.90;98.30
8707;DHT22;4390;49.302;9.306;2022-12-20T04:56:44;1.90;98.30
8707;DHT22;4390;49.302;9.306;2022-12-20T04:59:16;1.90;98.30
8707;DHT22;4390;49.302;9.306;2022-12-20T05:01:45;1.90;98.30
8707;DHT22;4390;49.302;9.306;2022-12-20T05:04:19;2.00;98.30
8707;DHT22;4390;49.302;9.306;2022-12-20T05:06:46;1.90;98.30
8707;DHT22;4390;49.302;9.306;2022-12-20T05:09:13;2.00;98.30
8707;DHT22;4390;49.302;9.306;2022-12-20T05:11:40;2.00;98.30
8707;DHT22;4390;49.302;9.306;2022-12-20T05:14:07;2.10;98.30
8707;DHT22;4390;49.302;9.306;2022-12-20T05:16:35;2.00;98.30
8707;DHT22;4390;49.302;9.306;2022-12-20T05:19:04;2.20;98.30
8707;DHT22;4390;49.302;9.306;2022-12-20T05:21:36;2.10;98.30
8707;DHT22;4390;49.302;9.306;2022-12-20T05:24:21;2.00;98.30
8707;DHT22;4390;49.302;9.306;2022-12-20T05:27:25;1.90;98.30
8707;DHT22;4390;49.302;9.306;2022-12-20T05:29:52;1.90;98.30
8707;DHT22;4390;49.302;9.306;2022-12-20T05:32:19;2.00;98.30
8707;DHT22;4390;49.302;9.306;2022-12-20T05:34:46;2.00;98.30
8707;DHT22;4390;49.302;9.306;2022-12-20T05:37:14;1.90;98.30
8707;DHT22;4390;49.302;9.306;2022-12-20T05:39:42;1.90;98.30
8707;DHT22;4390;49.302;9.306;2022-12-20T05:42:15;1.90;98.30
8707;DHT22;4390;49.302;9.306;2022-12-20T05:44:41;1.80;98.30
8707;DHT22;4390;49.302;9.306;2022-12-20T05:47:08;1.80;98.30
8707;DHT22;4390;49.302;9.306;2022-12-20T05:49:36;1.80;98.30
8707;DHT22;4390;49.302;9.306;2022-12-20T05:52:06;1.80;98.30
8707;DHT22;4390;49.302;9.306;2022-12-20T05:54:35;1.70;98.30
8707;DHT22;4390;49.302;9.306;2022-12-20T05:57:23;1.90;98.30
8707;DHT22;4390;49.302;9.306;2022-12-20T05:59:49;1.80;98.30
8707;DHT22;4390;49.302;9.306;2022-12-20T06:02:20;1.80;98.30
8707;DHT22;4390;49.302;9.306;2022-12-20T06:04:52;1.80;98.30
8707;DHT22;4390;49.302;9.306;2022-12-20T06:07:21;1.90;98.30
8707;DHT22;4390;49.302;9.306;2022-12-20T06:09:52;1.90;98.30
8707;DHT22;4390;49.302;9.306;2022-12-20T06:12:24;1.80;98.30
8707;DHT22;4390;49.302;9.306;2022-12-20T06:14:51;1.70;98.30
8707;DHT22;4390;49.302;9.306;2022-12-20T06:17:18;1.70;98.30
8707;DHT22;4390;49.302;9.306;2022-12-20T06:19:47;1.70;98.30
8707;DHT22;4390;49.302;9.306;2022-12-20T06:22:15;1.80;98.30
8707;DHT22;4390;49.302;9.306;2022-12-20T06:24:48;2.00;98.30
8707;DHT22;4390;49.302;9.306;2022-12-20T06:27:18;2.10;98.30
8707;DHT22;4390;49.302;9.306;2022-12-20T06:29:53;2.00;98.30
8707;DHT22;4390;49.302;9.306;2022-12-20T06:32:24;1.90;98.30
8707;DHT22;4390;49.302;9.306;2022-12-20T06:34:51;2.00;98.30
8707;DHT22;4390;49.302;9.306;2022-12-20T06:37:18;2.00;98.30
8707;DHT22;4390;49.302;9.306;2022-12-20T06:39:45;2.10;98.30
8707;DHT22;4390;49.302;9.306;2022-12-20T06:42:12;1.90;98.30
8707;DHT22;4390;49.302;9.306;2022-12-20T06:44:42;1.90;98.30
8707;DHT22;4390;49.302;9.306;2022-12-20T06:47:08;1.80;98.30
8707;DHT22;4390;49.302;9.306;2022-12-20T06:49:36;1.80;98.30
8707;DHT22;4390;49.302;9.306;2022-12-20T06:52:09;1.80;98.30
8707;DHT22;4390;49.302;9.306;2022-12-20T06:54:46;1.90;98.30
8707;DHT22;4390;49.302;9.306;2022-12-20T06:57:13;1.80;98.30
8707;DHT22;4390;49.302;9.306;2022-12-20T06:59:42;1.80;98.30
8707;DHT22;4390;49.302;9.306;2022-12-20T07:02:10;1.80;98.30
8707;DHT22;4390;49.302;9.306;2022-12-20T07:04:37;1.80;98.30
8707;DHT22;4390;49.302;9.306;2022-12-20T07:07:04;2.00;98.30
8707;DHT22;4390;49.302;9.306;2022-12-20T07:09:31;2.00;98.30
8707;DHT22;4390;49.302;9.306;2022-12-20T07:11:58;2.00;98.30
8707;DHT22;4390;49.302;9.306;2022-12-20T07:14:25;1.80;98.30
8707;DHT22;4390;49.302;9.306;2022-12-20T07:16:52;1.90;98.30
8707;DHT22;4390;49.302;9.306;2022-12-20T07:19:19;2.00;98.30
8707;DHT22;4390;49.302;9.306;2022-12-20T07:21:47;2.10;98.30
8707;DHT22;4390;49.302;9.306;2022-12-20T07:24:14;2.10;98.30
8707;DHT22;4390;49.302;9.306;2022-12-20T07:26:43;2.10;98.30
8707;DHT22;4390;49.302;9.306;2022-12-20T07:29:11;2.10;98.30
8707;DHT22;4390;49.302;9.306;2022-12-20T07:31:41;2.20;98.30
8707;DHT22;4390;49.302;9.306;2022-12-20T07:34:09;2.00;98.30
8707;DHT22;4390;49.302;9.306;2022-12-20T07:36:36;2.00;98.30
8707;DHT22;4390;49.302;9.306;2022-12-20T07:39:03;2.10;98.30
8707;DHT22;4390;49.302;9.306;2022-12-20T07:41:30;1.90;98.30
8707;DHT22;4390;49.302;9.306;2022-12-20T07:43:58;2.00;98.30
8707;DHT22;4390;49.302;9.306;2022-12-20T07:46:25;2.30;98.30
8707;DHT22;4390;49.302;9.306;2022-12-20T07:48:53;2.40;98.30
8707;DHT22;4390;49.302;9.306;2022-12-20T07:51:39;2.30;98.30
8707;DHT22;4390;49.302;9.306;2022-12-20T07:54:24;2.30;98.30
8707;DHT22;4390;49.302;9.306;2022-12-20T07:56:56;2.40;98.30
8707;DHT22;4390;49.302;9.306;2022-12-20T07:59:27;2.40;98.30
8707;DHT22;4390;49.302;9.306;2022-12-20T08:01:56;2.40;98.30
8707;DHT22;4390;49.302;9.306;2022-12-20T08:04:30;2.30;98.30
8707;DHT22;4390;49.302;9.306;2022-12-20T08:06:58;2.30;98.30
8707;DHT22;4390;49.302;9.306;2022-12-20T08:09:29;2.20;98.30
8707;DHT22;4390;49.302;9.306;2022-12-20T08:11:57;2.30;98.30
8707;DHT22;4390;49.302;9.306;2022-12-20T08:14:24;2.20;98.30
8707;DHT22;4390;49.302;9.306;2022-12-20T08:16:51;2.30;98.30
8707;DHT22;4390;49.302;9.306;2022-12-20T08:19:18;2.40;98.30
8707;DHT22;4390;49.302;9.306;2022-12-20T08:21:45;2.50;98.30
8707;DHT22;4390;49.302;9.306;2022-12-20T08:24:11;2.60;98.30
8707;DHT22;4390;49.302;9.306;2022-12-20T08:26:39;2.60;98.30
8707;DHT22;4390;49.302;9.306;2022-12-20T08:29:07;2.60;98.30
8707;DHT22;4390;49.302;9.306;2022-12-20T08:31:38;2.70;98.30
8707;DHT22;4390;49.302;9.306;2022-12-20T08:34:13;2.60;98.30
8707;DHT22;4390;49.302;9.306;2022-12-20T08:36:39;2.40;98.30
8707;DHT22;4390;49.302;9.306;2022-12-20T08:39:06;2.50;98.30
8707;DHT22;4390;49.302;9.306;2022-12-20T08:41:34;2.40;98.30
8707;DHT22;4390;49.302;9.306;2022-12-20T08:44:03;2.50;98.30
8707;DHT22;4390;49.302;9.306;2022-12-20T08:46:30;2.50;98.30
8707;DHT22;4390;49.302;9.306;2022-12-20T08:48:57;2.90;98.30
8707;DHT22;4390;49.302;9.306;2022-12-20T08:51:23;3.00;98.30
8707;DHT22;4390;49.302;9.306;2022-12-20T08:53:51;2.90;98.30
8707;DHT22;4390;49.302;9.306;2022-12-20T08:56:18;2.90;98.30
8707;DHT22;4390;49.302;9.306;2022-12-20T08:58:45;3.20;98.30
8707;DHT22;4390;49.302;9.306;2022-12-20T09:01:15;3.40;98.30
8707;DHT22;4390;49.302;9.306;2022-12-20T09:03:43;3.60;98.30
8707;DHT22;4390;49.302;9.306;2022-12-20T09:06:16;3.60;98.30
8707;DHT22;4390;49.302;9.306;2022-12-20T09:08:43;3.70;98.30
8707;DHT22;4390;49.302;9.306;2022-12-20T09:11:11;3.70;98.30
8707;DHT22;4390;49.302;9.306;2022-12-20T09:13:40;3.80;98.30
8707;DHT22;4390;49.302;9.306;2022-12-20T09:16:12;3.80;98.30
8707;DHT22;4390;49.302;9.306;2022-12-20T09:18:40;4.00;98.30
8707;DHT22;4390;49.302;9.306;2022-12-20T09:21:08;3.90;98.30
8707;DHT22;4390;49.302;9.306;2022-12-20T09:23:36;3.80;98.30
8707;DHT22;4390;49.302;9.306;2022-12-20T09:26:05;3.80;98.30
8707;DHT22;4390;49.302;9.306;2022-12-20T09:28:33;3.90;98.30
8707;DHT22;4390;49.302;9.306;2022-12-20T09:31:01;3.90;98.30
8707;DHT22;4390;49.302;9.306;2022-12-20T09:33:28;4.10;98.30
8707;DHT22;4390;49.302;9.306;2022-12-20T09:35:57;4.20;98.30
8707;DHT22;4390;49.302;9.306;2022-12-20T09:38:24;4.40;98.10
8707;DHT22;4390;49.302;9.306;2022-12-20T09:40:57;4.60;97.20
8707;DHT22;4390;49.302;9.306;2022-12-20T09:43:24;4.60;97.20
8707;DHT22;4390;49.302;9.306;2022-12-20T09:45:54;4.50;97.20
8707;DHT22;4390;49.302;9.306;2022-12-20T09:48:25;4.30;97.70
8707;DHT22;4390;49.302;9.306;2022-12-20T09:59:45;4.40;98.00
8707;DHT22;4390;49.302;9.306;2022-12-20T10:02:23;4.40;97.90
8707;DHT22;4390;49.302;9.306;2022-12-20T10:05:27;4.40;97.70
8707;DHT22;4390;49.302;9.306;2022-12-20T10:08:16;4.50;98.30
8707;DHT22;4390;49.302;9.306;2022-12-20T10:11:41;4.50;97.90
8707;DHT22;4390;49.302;9.306;2022-12-20T10:14:06;4.40;98.30
8707;DHT22;4390;49.302;9.306;2022-12-20T10:16:49;4.30;98.30
8707;DHT22;4390;49.302;9.306;2022-12-20T10:19:35;4.40;98.30
8707;DHT22;4390;49.302;9.306;2022-12-20T10:22:15;4.30;98.30
8707;DHT22;4390;49.302;9.306;2022-12-20T10:24:52;4.60;98.10
8707;DHT22;4390;49.302;9.306;2022-12-20T10:27:21;4.40;98.20
8707;DHT22;4390;49.302;9.306;2022-12-20T10:29:49;4.30;98.30
8707;DHT22;4390;49.302;9.306;2022-12-20T10:32:19;4.30;98.30
8707;DHT22;4390;49.302;9.306;2022-12-20T10:34:54;4.40;98.30
8707;DHT22;4390;49.302;9.306;2022-12-20T10:37:21;4.40;98.30
8707;DHT22;4390;49.302;9.306;2022-12-20T10:39:50;4.30;98.30
8707;DHT22;4390;49.302;9.306;2022-12-20T10:42:39;4.30;98.30
8707;DHT22;4390;49.302;9.306;2022-12-20T10:47:45;4.30;98.30
8707;DHT22;4390;49.302;9.306;2022-12-20T10:50:18;4.30;98.30
8707;DHT22;4390;49.302;9.306;2022-12-20T10:53:02;4.50;98.30
8707;DHT22;4390;49.302;9.306;2022-12-20T10:55:37;4.60;98.30
8707;DHT22;4390;49.302;9.306;2022-12-20T10:58:16;4.40;98.30
8707;DHT22;4390;49.302;9.306;2022-12-20T11:00:47;4.60;98.30
8707;DHT22;4390;49.302;9.306;2022-12-20T11:03:21;4.60;98.30
8707;DHT22;4390;49.302;9.306;2022-12-20T11:06:01;4.50;98.30
8707;DHT22;4390;49.302;9.306;2022-12-20T11:08:32;4.50;98.30
8707;DHT22;4390;49.302;9.306;2022-12-20T11:11:18;4.30;98.30
8707;DHT22;4390;49.302;9.306;2022-12-20T11:13:46;4.10;98.30
8707;DHT22;4390;49.302;9.306;2022-12-20T11:16:33;4.00;98.30
8707;DHT22;4390;49.302;9.306;2022-12-20T11:19:49;3.90;98.30
8707;DHT22;4390;49.302;9.306;2022-12-20T11:31:04;4.00;98.30
8707;DHT22;4390;49.302;9.306;2022-12-20T11:39:29;4.10;98.30
8707;DHT22;4390;49.302;9.306;2022-12-20T11:51:03;4.70;98.30
8707;DHT22;4390;49.302;9.306;2022-12-20T11:53:50;4.50;98.30
8707;DHT22;4390;49.302;9.306;2022-12-20T11:56:33;4.40;98.30
8707;DHT22;4390;49.302;9.306;2022-12-20T12:02:24;4.60;98.30
8707;DHT22;4390;49.302;9.306;2022-12-20T12:04:57;4.80;98.30
8707;DHT22;4390;49.302;9.306;2022-12-20T12:07:28;4.70;98.30
8707;DHT22;4390;49.302;9.306;2022-12-20T12:10:04;4.50;98.30
8707;DHT22;4390;49.302;9.306;2022-12-20T12:12:41;4.50;98.30
8707;DHT22;4390;49.302;9.306;2022-12-20T12:17:58;4.40;98.30
8707;DHT22;4390;49.302;9.306;2022-12-20T12:20:39;4.30;98.30
8707;DHT22;4390;49.302;9.306;2022-12-20T12:25:49;4.30;98.30
8707;DHT22;4390;49.302;9.306;2022-12-20T12:28:17;4.50;98.30
8707;DHT22;4390;49.302;9.306;2022-12-20T12:30:51;4.60;98.30
8707;DHT22;4390;49.302;9.306;2022-12-20T12:33:33;4.50;98.30
8707;DHT22;4390;49.302;9.306;2022-12-20T12:38:56;4.40;98.30
8707;DHT22;4390;49.302;9.306;2022-12-20T12:44:45;4.50;98.30
8707;DHT22;4390;49.302;9.306;2022-12-20T12:47:19;4.50;98.30
8707;DHT22;4390;49.302;9.306;2022-12-20T12:49:49;4.40;98.30
8707;DHT22;4390;49.302;9.306;2022-12-20T12:52:40;4.40;98.30
8707;DHT22;4390;49.302;9.306;2022-12-20T12:55:47;4.30;98.30
8707;DHT22;4390;49.302;9.306;2022-12-20T13:11:34;4.60;98.30
8707;DHT22;4390;49.302;9.306;2022-12-20T13:16:45;4.60;98.30
8707;DHT22;4390;49.302;9.306;2022-12-20T13:19:34;4.80;98.30
8707;DHT22;4390;49.302;9.306;2022-12-20T13:24:53;4.90;98.30
8707;DHT22;4390;49.302;9.306;2022-12-20T13:29:59;5.10;98.30
8707;DHT22;4390;49.302;9.306;2022-12-20T13:38:36;5.00;98.30
8707;DHT22;4390;49.302;9.306;2022-12-20T13:41:30;4.80;98.30
8707;DHT22;4390;49.302;9.306;2022-12-20T13:47:05;4.80;98.30
8707;DHT22;4390;49.302;9.306;2022-12-20T13:49:39;4.90;98.30
8707;DHT22;4390;49.302;9.306;2022-12-20T13:52:33;5.10;98.30
8707;DHT22;4390;49.302;9.306;2022-12-20T13:55:14;5.00;98.30
8707;DHT22;4390;49.302;9.306;2022-12-20T13:57:43;4.90;98.30
8707;DHT22;4390;49.302;9.306;2022-12-20T14:00:22;4.90;98.30
8707;DHT22;4390;49.302;9.306;2022-12-20T14:02:51;4.80;98.30
8707;DHT22;4390;49.302;9.306;2022-12-20T14:05:21;4.60;98.30
8707;DHT22;4390;49.302;9.306;2022-12-20T14:07:58;4.50;98.30
8707;DHT22;4390;49.302;9.306;2022-12-20T14:10:29;4.40;98.30
8707;DHT22;4390;49.302;9.306;2022-12-20T14:12:57;4.40;98.30
8707;DHT22;4390;49.302;9.306;2022-12-20T14:15:25;4.40;98.30
8707;DHT22;4390;49.302;9.306;2022-12-20T14:17:52;4.40;98.30
8707;DHT22;4390;49.302;9.306;2022-12-20T14:20:23;4.40;98.30
8707;DHT22;4390;49.302;9.306;2022-12-20T14:22:54;4.30;98.30
8707;DHT22;4390;49.302;9.306;2022-12-20T14:25:42;4.30;98.30
8707;DHT22;4390;49.302;9.306;2022-12-20T14:30:52;4.30;98.30
8707;DHT22;4390;49.302;9.306;2022-12-20T14:35:56;4.20;98.30
8707;DHT22;4390;49.302;9.306;2022-12-20T14:38:28;4.30;98.30
8707;DHT22;4390;49.302;9.306;2022-12-20T14:40:56;4.30;98.30
8707;DHT22;4390;49.302;9.306;2022-12-20T14:43:26;4.30;98.30
8707;DHT22;4390;49.302;9.306;2022-12-20T14:46:16;4.30;98.30
8707;DHT22;4390;49.302;9.306;2022-12-20T14:48:44;4.40;98.30
8707;DHT22;4390;49.302;9.306;2022-12-20T14:51:12;4.40;98.30
8707;DHT22;4390;49.302;9.306;2022-12-20T14:53:39;4.50;98.30
8707;DHT22;4390;49.302;9.306;2022-12-20T14:56:13;4.40;98.30
8707;DHT22;4390;49.302;9.306;2022-12-20T14:58:43;4.30;98.30
8707;DHT22;4390;49.302;9.306;2022-12-20T15:01:19;4.40;98.30
8707;DHT22;4390;49.302;9.306;2022-12-20T15:03:54;4.50;98.30
8707;DHT22;4390;49.302;9.306;2022-12-20T15:06:52;4.60;98.30
8707;DHT22;4390;49.302;9.306;2022-12-20T15:09:19;4.40;98.30
8707;DHT22;4390;49.302;9.306;2022-12-20T15:11:47;4.40;98.30
8707;DHT22;4390;49.302;9.306;2022-12-20T15:14:34;4.50;98.30
8707;DHT22;4390;49.302;9.306;2022-12-20T15:17:10;4.80;98.30
8707;DHT22;4390;49.302;9.306;2022-12-20T15:19:37;4.90;98.30
8707;DHT22;4390;49.302;9.306;2022-12-20T15:22:16;4.70;98.30
8707;DHT22;4390;49.302;9.306;2022-12-20T15:24:44;4.70;98.30
8707;DHT22;4390;49.302;9.306;2022-12-20T15:27:12;4.70;98.30
8707;DHT22;4390;49.302;9.306;2022-12-20T15:29:39;4.60;98.30
8707;DHT22;4390;49.302;9.306;2022-12-20T15:32:23;4.60;98.30
8707;DHT22;4390;49.302;9.306;2022-12-20T15:34:50;4.30;98.30
8707;DHT22;4390;49.302;9.306;2022-12-20T15:37:16;4.00;98.30
8707;DHT22;4390;49.302;9.306;2022-12-20T15:39:44;4.00;98.30
8707;DHT22;4390;49.302;9.306;2022-12-20T15:42:16;3.90;98.30
8707;DHT22;4390;49.302;9.306;2022-12-20T15:44:44;3.90;98.30
8707;DHT22;4390;49.302;9.306;2022-12-20T15:47:12;4.00;98.30
8707;DHT22;4390;49.302;9.306;2022-12-20T15:49:39;4.30;98.30
8707;DHT22;4390;49.302;9.306;2022-12-20T15:52:18;4.50;98.30
8707;DHT22;4390;49.302;9.306;2022-12-20T15:54:46;4.20;98.30
8707;DHT22;4390;49.302;9.306;2022-12-20T15:57:13;4.10;98.30
8707;DHT22;4390;49.302;9.306;2022-12-20T15:59:40;4.20;98.30
8707;DHT22;4390;49.302;9.306;2022-12-20T16:02:28;4.00;98.30
8707;DHT22;4390;49.302;9.306;2022-12-20T16:04:57;4.00;98.30
8707;DHT22;4390;49.302;9.306;2022-12-20T16:07:24;4.00;98.30
8707;DHT22;4390;49.302;9.306;2022-12-20T16:09:51;3.90;98.30
8707;DHT22;4390;49.302;9.306;2022-12-20T16:12:25;3.90;98.30
8707;DHT22;4390;49.302;9.306;2022-12-20T16:14:52;3.90;98.30
8707;DHT22;4390;49.302;9.306;2022-12-20T16:17:19;3.90;98.30
8707;DHT22;4390;49.302;9.306;2022-12-20T16:19:46;4.00;98.30
8707;DHT22;4390;49.302;9.306;2022-12-20T16:22:15;3.90;98.30
8707;DHT22;4390;49.302;9.306;2022-12-20T16:24:43;4.10;98.30
8707;DHT22;4390;49.302;9.306;2022-12-20T16:27:10;4.00;98.30
8707;DHT22;4390;49.302;9.306;2022-12-20T16:29:37;4.00;98.30
8707;DHT22;4390;49.302;9.306;2022-12-20T16:32:15;4.00;98.30
8707;DHT22;4390;49.302;9.306;2022-12-20T16:34:42;4.00;98.30
8707;DHT22;4390;49.302;9.306;2022-12-20T16:37:10;4.00;98.30
8707;DHT22;4390;49.302;9.306;2022-12-20T16:39:40;3.90;98.30
8707;DHT22;4390;49.302;9.306;2022-12-20T16:42:15;4.00;98.30
8707;DHT22;4390;49.302;9.306;2022-12-20T16:44:42;4.10;98.30
8707;DHT22;4390;49.302;9.306;2022-12-20T16:47:11;3.80;98.30
8707;DHT22;4390;49.302;9.306;2022-12-20T16:49:39;3.70;98.30
8707;DHT22;4390;49.302;9.306;2022-12-20T16:52:17;3.80;98.30
8707;DHT22;4390;49.302;9.306;2022-12-20T16:54:44;3.80;98.30
8707;DHT22;4390;49.302;9.306;2022-12-20T16:57:10;3.80;98.30
8707;DHT22;4390;49.302;9.306;2022-12-20T16:59:37;3.80;98.30
8707;DHT22;4390;49.302;9.306;2022-12-20T17:02:19;3.80;98.30
8707;DHT22;4390;49.302;9.306;2022-12-20T17:04:47;3.70;98.30
8707;DHT22;4390;49.302;9.306;2022-12-20T17:07:14;3.70;98.30
8707;DHT22;4390;49.302;9.306;2022-12-20T17:09:41;3.70;98.30
8707;DHT22;4390;49.302;9.306;2022-12-20T17:12:19;3.60;98.30
8707;DHT22;4390;49.302;9.306;2022-12-20T17:14:47;3.60;98.30
8707;DHT22;4390;49.302;9.306;2022-12-20T17:17:14;3.60;98.30
8707;DHT22;4390;49.302;9.306;2022-12-20T17:19:41;3.70;98.30
8707;DHT22;4390;49.302;9.306;2022-12-20T17:22:10;3.80;98.30
8707;DHT22;4390;49.302;9.306;2022-12-20T17:24:50;3.70;98.30
8707;DHT22;4390;49.302;9.306;2022-12-20T17:27:16;3.60;98.30
8707;DHT22;4390;49.302;9.306;2022-12-20T17:29:44;3.60;98.30
8707;DHT22;4390;49.302;9.306;2022-12-20T17:32:19;3.60;98.30
8707;DHT22;4390;49.302;9.306;2022-12-20T17:34:47;3.70;98.30
8707;DHT22;4390;49.302;9.306;2022-12-20T17:37:13;3.80;98.30
8707;DHT22;4390;49.302;9.306;2022-12-20T17:39:40;3.70;98.30
8707;DHT22;4390;49.302;9.306;2022-12-20T17:42:12;3.60;98.30
8707;DHT22;4390;49.302;9.306;2022-12-20T17:44:39;3.70;98.30
8707;DHT22;4390;49.302;9.306;2022-12-20T17:47:05;3.70;98.30
8707;DHT22;4390;49.302;9.306;2022-12-20T17:49:32;3.80;98.30
8707;DHT22;4390;49.302;9.306;2022-12-20T17:51:59;3.80;98.30
8707;DHT22;4390;49.302;9.306;2022-12-20T17:54:26;3.80;98.30
8707;DHT22;4390;49.302;9.306;2022-12-20T17:57:02;4.00;98.30
8707;DHT22;4390;49.302;9.306;2022-12-20T17:59:29;3.80;98.30
8707;DHT22;4390;49.302;9.306;2022-12-20T18:01:56;3.70;98.30
8707;DHT22;4390;49.302;9.306;2022-12-20T18:04:23;3.60;98.30
8707;DHT22;4390;49.302;9.306;2022-12-20T18:06:50;3.60;98.30
8707;DHT22;4390;49.302;9.306;2022-12-20T18:09:19;3.60;98.30
8707;DHT22;4390;49.302;9.306;2022-12-20T18:11:47;3.60;98.30
8707;DHT22;4390;49.302;9.306;2022-12-20T18:14:14;3.70;98.30
8707;DHT22;4390;49.302;9.306;2022-12-20T18:16:41;3.70;98.30
8707;DHT22;4390;49.302;9.306;2022-12-20T18:19:16;3.70;98.30
8707;DHT22;4390;49.302;9.306;2022-12-20T18:21:43;3.60;98.30